sensor_id;sensor_type;location;lat;lon;timestamp;P1;durP1;ratioP1;P2;durP2;ratioP2
73084;SDS011;62974;49.460;10.892;2022-10-31T00:01:11;7.80;;;3.53;;
73084;SDS011;62974;49.460;10.892;2022-10-31T00:03:39;4.53;;;3.17;;
73084;SDS011;62974;49.460;10.892;2022-10-31T00:06:07;6.10;;;3.63;;
73084;SDS011;62974;49.460;10.892;2022-10-31T00:08:35;10.77;;;3.70;;
73084;SDS011;62974;49.460;10.892;2022-10-31T00:11:02;6.85;;;3.45;;
73084;SDS011;62974;49.460;10.892;2022-10-31T00:13:30;7.43;;;3.90;;
73084;SDS011;62974;49.460;10.892;2022-10-31T00:15:58;8.13;;;4.03;;
73084;SDS011;62974;49.460;10.892;2022-10-31T00:18:27;8.40;;;3.70;;
73084;SDS011;62974;49.460;10.892;2022-10-31T00:20:58;5.95;;;3.65;;
73084;SDS011;62974;49.460;10.892;2022-10-31T00:23:26;10.18;;;3.85;;
73084;SDS011;62974;49.460;10.892;2022-10-31T00:25:53;7.32;;;3.83;;
73084;SDS011;62974;49.460;10.892;2022-10-31T00:28:21;7.45;;;3.33;;
73084;SDS011;62974;49.460;10.892;2022-10-31T00:30:49;7.13;;;3.60;;
73084;SDS011;62974;49.460;10.892;2022-10-31T00:33:16;6.70;;;3.78;;
73084;SDS011;62974;49.460;10.892;2022-10-31T00:35:50;7.45;;;3.58;;
73084;SDS011;62974;49.460;10.892;2022-10-31T00:38:17;9.55;;;3.53;;
73084;SDS011;62974;49.460;10.892;2022-10-31T00:40:45;6.05;;;2.80;;
73084;SDS011;62974;49.460;10.892;2022-10-31T00:43:12;6.82;;;3.22;;
73084;SDS011;62974;49.460;10.892;2022-10-31T00:45:40;5.60;;;2.80;;
73084;SDS011;62974;49.460;10.892;2022-10-31T00:48:08;6.28;;;2.85;;
73084;SDS011;62974;49.460;10.892;2022-10-31T00:50:36;4.50;;;2.47;;
73084;SDS011;62974;49.460;10.892;2022-10-31T00:53:05;3.72;;;2.83;;
73084;SDS011;62974;49.460;10.892;2022-10-31T00:55:33;9.32;;;2.85;;
73084;SDS011;62974;49.460;10.892;2022-10-31T00:58:00;4.65;;;2.50;;
73084;SDS011;62974;49.460;10.892;2022-10-31T01:00:29;5.53;;;2.90;;
73084;SDS011;62974;49.460;10.892;2022-10-31T01:02:56;9.18;;;3.45;;
73084;SDS011;62974;49.460;10.892;2022-10-31T01:05:24;6.90;;;2.90;;
73084;SDS011;62974;49.460;10.892;2022-10-31T01:07:52;6.00;;;2.80;;
73084;SDS011;62974;49.460;10.892;2022-10-31T01:10:21;7.30;;;3.00;;
73084;SDS011;62974;49.460;10.892;2022-10-31T01:12:49;4.53;;;2.55;;
73084;SDS011;62974;49.460;10.892;2022-10-31T01:15:17;6.80;;;3.20;;
73084;SDS011;62974;49.460;10.892;2022-10-31T01:17:46;6.78;;;2.78;;
73084;SDS011;62974;49.460;10.892;2022-10-31T01:20:14;5.25;;;2.70;;
73084;SDS011;62974;49.460;10.892;2022-10-31T01:22:43;6.60;;;2.80;;
73084;SDS011;62974;49.460;10.892;2022-10-31T01:25:11;4.43;;;2.78;;
73084;SDS011;62974;49.460;10.892;2022-10-31T01:27:40;7.00;;;3.10;;
73084;SDS011;62974;49.460;10.892;2022-10-31T01:30:08;7.57;;;3.30;;
73084;SDS011;62974;49.460;10.892;2022-10-31T01:32:36;8.20;;;3.33;;
73084;SDS011;62974;49.460;10.892;2022-10-31T01:35:03;4.38;;;2.78;;
73084;SDS011;62974;49.460;10.892;2022-10-31T01:37:31;9.45;;;3.67;;
73084;SDS011;62974;49.460;10.892;2022-10-31T01:39:58;5.93;;;2.60;;
73084;SDS011;62974;49.460;10.892;2022-10-31T01:42:26;9.27;;;2.90;;
73084;SDS011;62974;49.460;10.892;2022-10-31T01:44:56;6.00;;;3.03;;
73084;SDS011;62974;49.460;10.892;2022-10-31T01:52:43;4.63;;;2.47;;
73084;SDS011;62974;49.460;10.892;2022-10-31T01:55:13;8.30;;;2.70;;
73084;SDS011;62974;49.460;10.892;2022-10-31T01:57:46;7.22;;;3.00;;
73084;SDS011;62974;49.460;10.892;2022-10-31T02:00:18;5.68;;;3.05;;
73084;SDS011;62974;49.460;10.892;2022-10-31T02:02:47;6.30;;;3.10;;
73084;SDS011;62974;49.460;10.892;2022-10-31T02:05:17;5.95;;;2.70;;
73084;SDS011;62974;49.460;10.892;2022-10-31T02:07:48;4.85;;;2.55;;
73084;SDS011;62974;49.460;10.892;2022-10-31T02:10:22;7.45;;;3.35;;
73084;SDS011;62974;49.460;10.892;2022-10-31T02:12:51;4.50;;;2.40;;
73084;SDS011;62974;49.460;10.892;2022-10-31T02:15:21;5.63;;;2.90;;
73084;SDS011;62974;49.460;10.892;2022-10-31T02:17:49;5.97;;;2.70;;
73084;SDS011;62974;49.460;10.892;2022-10-31T02:20:17;8.77;;;3.40;;
73084;SDS011;62974;49.460;10.892;2022-10-31T02:23:00;6.50;;;2.70;;
73084;SDS011;62974;49.460;10.892;2022-10-31T02:26:00;3.95;;;2.42;;
73084;SDS011;62974;49.460;10.892;2022-10-31T02:28:58;6.20;;;2.85;;
73084;SDS011;62974;49.460;10.892;2022-10-31T02:31:40;6.57;;;2.78;;
73084;SDS011;62974;49.460;10.892;2022-10-31T02:34:15;6.90;;;2.60;;
73084;SDS011;62974;49.460;10.892;2022-10-31T02:36:48;4.53;;;2.38;;
73084;SDS011;62974;49.460;10.892;2022-10-31T02:39:24;7.85;;;2.58;;
73084;SDS011;62974;49.460;10.892;2022-10-31T02:42:04;4.15;;;2.53;;
73084;SDS011;62974;49.460;10.892;2022-10-31T02:44:37;5.40;;;2.78;;
73084;SDS011;62974;49.460;10.892;2022-10-31T02:47:13;5.95;;;2.85;;
73084;SDS011;62974;49.460;10.892;2022-10-31T02:49:44;5.97;;;2.60;;
73084;SDS011;62974;49.460;10.892;2022-10-31T02:52:18;4.20;;;2.80;;
73084;SDS011;62974;49.460;10.892;2022-10-31T02:54:46;2.97;;;2.03;;
73084;SDS011;62974;49.460;10.892;2022-10-31T02:59:44;5.28;;;2.30;;
73084;SDS011;62974;49.460;10.892;2022-10-31T03:02:24;4.90;;;2.42;;
73084;SDS011;62974;49.460;10.892;2022-10-31T03:05:12;3.53;;;2.05;;
73084;SDS011;62974;49.460;10.892;2022-10-31T03:07:51;5.97;;;2.90;;
73084;SDS011;62974;49.460;10.892;2022-10-31T03:10:27;3.72;;;2.10;;
73084;SDS011;62974;49.460;10.892;2022-10-31T03:13:05;4.63;;;2.30;;
73084;SDS011;62974;49.460;10.892;2022-10-31T03:15:43;4.07;;;2.33;;
73084;SDS011;62974;49.460;10.892;2022-10-31T03:18:14;4.15;;;2.30;;
73084;SDS011;62974;49.460;10.892;2022-10-31T03:20:45;5.03;;;2.30;;
73084;SDS011;62974;49.460;10.892;2022-10-31T03:23:17;5.95;;;2.35;;
73084;SDS011;62974;49.460;10.892;2022-10-31T03:25:46;3.55;;;2.30;;
73084;SDS011;62974;49.460;10.892;2022-10-31T03:28:16;5.90;;;2.50;;
73084;SDS011;62974;49.460;10.892;2022-10-31T03:30:47;4.97;;;2.35;;
73084;SDS011;62974;49.460;10.892;2022-10-31T03:33:19;4.32;;;2.55;;
73084;SDS011;62974;49.460;10.892;2022-10-31T03:35:50;4.13;;;2.55;;
73084;SDS011;62974;49.460;10.892;2022-10-31T03:38:21;4.60;;;2.10;;
73084;SDS011;62974;49.460;10.892;2022-10-31T03:40:49;4.30;;;2.38;;
73084;SDS011;62974;49.460;10.892;2022-10-31T03:43:22;3.65;;;2.03;;
73084;SDS011;62974;49.460;10.892;2022-10-31T03:48:24;6.57;;;2.55;;
73084;SDS011;62974;49.460;10.892;2022-10-31T03:50:58;5.18;;;2.70;;
73084;SDS011;62974;49.460;10.892;2022-10-31T03:53:33;6.65;;;2.53;;
73084;SDS011;62974;49.460;10.892;2022-10-31T03:56:07;4.95;;;2.42;;
73084;SDS011;62974;49.460;10.892;2022-10-31T03:58:42;10.80;;;3.17;;
73084;SDS011;62974;49.460;10.892;2022-10-31T04:01:15;5.25;;;2.97;;
73084;SDS011;62974;49.460;10.892;2022-10-31T04:03:46;4.90;;;2.88;;
73084;SDS011;62974;49.460;10.892;2022-10-31T04:06:15;8.02;;;2.63;;
73084;SDS011;62974;49.460;10.892;2022-10-31T04:08:48;5.00;;;3.10;;
73084;SDS011;62974;49.460;10.892;2022-10-31T04:11:20;7.28;;;2.67;;
73084;SDS011;62974;49.460;10.892;2022-10-31T04:13:52;6.38;;;2.53;;
73084;SDS011;62974;49.460;10.892;2022-10-31T04:16:20;7.07;;;2.92;;
73084;SDS011;62974;49.460;10.892;2022-10-31T04:18:51;5.78;;;2.85;;
73084;SDS011;62974;49.460;10.892;2022-10-31T04:21:19;5.90;;;3.22;;
73084;SDS011;62974;49.460;10.892;2022-10-31T04:23:46;11.43;;;3.13;;
73084;SDS011;62974;49.460;10.892;2022-10-31T04:26:14;6.32;;;3.05;;
73084;SDS011;62974;49.460;10.892;2022-10-31T04:28:41;5.32;;;3.20;;
73084;SDS011;62974;49.460;10.892;2022-10-31T04:31:09;5.78;;;2.95;;
73084;SDS011;62974;49.460;10.892;2022-10-31T04:33:38;6.80;;;3.15;;
73084;SDS011;62974;49.460;10.892;2022-10-31T04:36:07;7.13;;;3.20;;
73084;SDS011;62974;49.460;10.892;2022-10-31T04:38:35;8.32;;;3.38;;
73084;SDS011;62974;49.460;10.892;2022-10-31T04:41:02;8.95;;;3.67;;
73084;SDS011;62974;49.460;10.892;2022-10-31T04:43:30;6.03;;;3.17;;
73084;SDS011;62974;49.460;10.892;2022-10-31T04:45:58;9.23;;;3.60;;
73084;SDS011;62974;49.460;10.892;2022-10-31T04:48:25;7.68;;;3.40;;
73084;SDS011;62974;49.460;10.892;2022-10-31T04:50:53;8.75;;;3.20;;
73084;SDS011;62974;49.460;10.892;2022-10-31T04:53:26;6.85;;;3.15;;
73084;SDS011;62974;49.460;10.892;2022-10-31T04:55:54;6.82;;;2.97;;
73084;SDS011;62974;49.460;10.892;2022-10-31T04:58:21;6.68;;;3.10;;
73084;SDS011;62974;49.460;10.892;2022-10-31T05:00:51;9.10;;;2.97;;
73084;SDS011;62974;49.460;10.892;2022-10-31T05:03:20;9.30;;;2.58;;
73084;SDS011;62974;49.460;10.892;2022-10-31T05:05:47;5.15;;;2.70;;
73084;SDS011;62974;49.460;10.892;2022-10-31T05:08:15;7.68;;;2.90;;
73084;SDS011;62974;49.460;10.892;2022-10-31T05:10:44;8.88;;;2.83;;
73084;SDS011;62974;49.460;10.892;2022-10-31T05:13:11;4.97;;;2.60;;
73084;SDS011;62974;49.460;10.892;2022-10-31T05:15:40;5.97;;;2.78;;
73084;SDS011;62974;49.460;10.892;2022-10-31T05:18:08;4.75;;;2.50;;
73084;SDS011;62974;49.460;10.892;2022-10-31T05:20:35;4.32;;;2.78;;
73084;SDS011;62974;49.460;10.892;2022-10-31T05:23:03;5.13;;;2.75;;
73084;SDS011;62974;49.460;10.892;2022-10-31T05:25:30;5.30;;;2.63;;
73084;SDS011;62974;49.460;10.892;2022-10-31T05:27:59;5.15;;;2.50;;
73084;SDS011;62974;49.460;10.892;2022-10-31T05:30:28;7.40;;;3.25;;
73084;SDS011;62974;49.460;10.892;2022-10-31T05:32:59;6.30;;;2.97;;
73084;SDS011;62974;49.460;10.892;2022-10-31T05:35:28;10.48;;;3.10;;
73084;SDS011;62974;49.460;10.892;2022-10-31T05:37:57;7.63;;;3.00;;
73084;SDS011;62974;49.460;10.892;2022-10-31T05:40:25;5.55;;;3.10;;
73084;SDS011;62974;49.460;10.892;2022-10-31T05:42:54;4.70;;;2.85;;
73084;SDS011;62974;49.460;10.892;2022-10-31T05:45:26;5.38;;;3.03;;
73084;SDS011;62974;49.460;10.892;2022-10-31T05:47:54;7.03;;;3.35;;
73084;SDS011;62974;49.460;10.892;2022-10-31T05:50:23;10.20;;;2.80;;
73084;SDS011;62974;49.460;10.892;2022-10-31T05:52:55;7.78;;;3.28;;
73084;SDS011;62974;49.460;10.892;2022-10-31T05:55:24;7.80;;;3.80;;
73084;SDS011;62974;49.460;10.892;2022-10-31T05:57:51;7.38;;;3.55;;
73084;SDS011;62974;49.460;10.892;2022-10-31T06:00:19;4.72;;;2.80;;
73084;SDS011;62974;49.460;10.892;2022-10-31T06:02:49;5.97;;;3.15;;
73084;SDS011;62974;49.460;10.892;2022-10-31T06:05:24;7.75;;;2.78;;
73084;SDS011;62974;49.460;10.892;2022-10-31T06:07:51;4.65;;;2.88;;
73084;SDS011;62974;49.460;10.892;2022-10-31T06:10:19;9.25;;;3.08;;
73084;SDS011;62974;49.460;10.892;2022-10-31T06:12:47;4.93;;;2.60;;
73084;SDS011;62974;49.460;10.892;2022-10-31T06:15:15;6.00;;;2.78;;
73084;SDS011;62974;49.460;10.892;2022-10-31T06:17:58;5.85;;;3.22;;
73084;SDS011;62974;49.460;10.892;2022-10-31T06:20:27;7.70;;;3.33;;
73084;SDS011;62974;49.460;10.892;2022-10-31T06:22:54;6.55;;;2.78;;
73084;SDS011;62974;49.460;10.892;2022-10-31T06:25:23;5.15;;;2.95;;
73084;SDS011;62974;49.460;10.892;2022-10-31T06:27:50;7.18;;;2.90;;
73084;SDS011;62974;49.460;10.892;2022-10-31T06:30:18;4.35;;;2.85;;
73084;SDS011;62974;49.460;10.892;2022-10-31T06:32:45;4.25;;;2.53;;
73084;SDS011;62974;49.460;10.892;2022-10-31T06:35:14;5.55;;;2.85;;
73084;SDS011;62974;49.460;10.892;2022-10-31T06:37:42;6.05;;;3.15;;
73084;SDS011;62974;49.460;10.892;2022-10-31T06:40:15;4.78;;;2.53;;
73084;SDS011;62974;49.460;10.892;2022-10-31T06:42:43;7.78;;;2.65;;
73084;SDS011;62974;49.460;10.892;2022-10-31T06:45:10;7.75;;;2.80;;
73084;SDS011;62974;49.460;10.892;2022-10-31T06:47:38;4.72;;;2.55;;
73084;SDS011;62974;49.460;10.892;2022-10-31T06:50:23;4.78;;;2.58;;
73084;SDS011;62974;49.460;10.892;2022-10-31T06:52:51;6.15;;;2.97;;
73084;SDS011;62974;49.460;10.892;2022-10-31T06:55:19;5.82;;;2.88;;
73084;SDS011;62974;49.460;10.892;2022-10-31T06:57:51;5.90;;;2.90;;
73084;SDS011;62974;49.460;10.892;2022-10-31T07:00:24;5.93;;;2.45;;
73084;SDS011;62974;49.460;10.892;2022-10-31T07:02:53;4.53;;;2.65;;
73084;SDS011;62974;49.460;10.892;2022-10-31T07:05:21;5.07;;;2.47;;
73084;SDS011;62974;49.460;10.892;2022-10-31T07:07:52;4.97;;;3.10;;
73084;SDS011;62974;49.460;10.892;2022-10-31T07:10:20;4.50;;;2.67;;
73084;SDS011;62974;49.460;10.892;2022-10-31T07:12:48;6.80;;;2.90;;
73084;SDS011;62974;49.460;10.892;2022-10-31T07:15:15;3.88;;;2.53;;
73084;SDS011;62974;49.460;10.892;2022-10-31T07:17:43;4.50;;;2.45;;
73084;SDS011;62974;49.460;10.892;2022-10-31T07:20:10;7.88;;;2.60;;
73084;SDS011;62974;49.460;10.892;2022-10-31T07:22:38;5.13;;;3.05;;
73084;SDS011;62974;49.460;10.892;2022-10-31T07:25:09;7.90;;;2.95;;
73084;SDS011;62974;49.460;10.892;2022-10-31T07:27:37;5.93;;;3.08;;
73084;SDS011;62974;49.460;10.892;2022-10-31T07:30:09;4.57;;;2.85;;
73084;SDS011;62974;49.460;10.892;2022-10-31T07:32:38;5.50;;;3.45;;
73084;SDS011;62974;49.460;10.892;2022-10-31T07:35:06;5.57;;;3.03;;
73084;SDS011;62974;49.460;10.892;2022-10-31T07:40:02;5.35;;;3.20;;
73084;SDS011;62974;49.460;10.892;2022-10-31T07:42:35;5.90;;;3.42;;
73084;SDS011;62974;49.460;10.892;2022-10-31T07:45:03;5.43;;;3.17;;
73084;SDS011;62974;49.460;10.892;2022-10-31T07:50:05;6.82;;;3.47;;
73084;SDS011;62974;49.460;10.892;2022-10-31T07:52:32;5.93;;;4.00;;
73084;SDS011;62974;49.460;10.892;2022-10-31T07:55:00;7.32;;;3.75;;
73084;SDS011;62974;49.460;10.892;2022-10-31T07:57:27;9.80;;;4.50;;
73084;SDS011;62974;49.460;10.892;2022-10-31T08:00:01;11.18;;;4.45;;
73084;SDS011;62974;49.460;10.892;2022-10-31T08:02:29;7.35;;;4.43;;
73084;SDS011;62974;49.460;10.892;2022-10-31T08:04:56;11.70;;;5.32;;
73084;SDS011;62974;49.460;10.892;2022-10-31T08:07:27;10.43;;;4.63;;
73084;SDS011;62974;49.460;10.892;2022-10-31T08:09:55;10.15;;;4.97;;
73084;SDS011;62974;49.460;10.892;2022-10-31T08:12:23;9.15;;;4.57;;
73084;SDS011;62974;49.460;10.892;2022-10-31T08:14:50;7.70;;;4.00;;
73084;SDS011;62974;49.460;10.892;2022-10-31T08:17:19;9.50;;;4.60;;
73084;SDS011;62974;49.460;10.892;2022-10-31T08:19:47;13.43;;;5.55;;
73084;SDS011;62974;49.460;10.892;2022-10-31T08:22:14;10.55;;;4.95;;
73084;SDS011;62974;49.460;10.892;2022-10-31T08:24:42;9.95;;;4.72;;
73084;SDS011;62974;49.460;10.892;2022-10-31T08:27:09;10.50;;;5.22;;
73084;SDS011;62974;49.460;10.892;2022-10-31T08:29:37;15.38;;;6.13;;
73084;SDS011;62974;49.460;10.892;2022-10-31T08:32:04;14.73;;;6.80;;
73084;SDS011;62974;49.460;10.892;2022-10-31T08:34:33;15.77;;;6.22;;
73084;SDS011;62974;49.460;10.892;2022-10-31T08:37:00;19.63;;;6.65;;
73084;SDS011;62974;49.460;10.892;2022-10-31T08:39:28;23.00;;;7.65;;
73084;SDS011;62974;49.460;10.892;2022-10-31T08:41:55;16.25;;;6.30;;
73084;SDS011;62974;49.460;10.892;2022-10-31T08:44:23;14.65;;;5.85;;
73084;SDS011;62974;49.460;10.892;2022-10-31T08:46:50;13.85;;;6.05;;
73084;SDS011;62974;49.460;10.892;2022-10-31T08:49:18;10.20;;;4.75;;
73084;SDS011;62974;49.460;10.892;2022-10-31T08:51:48;9.43;;;5.78;;
73084;SDS011;62974;49.460;10.892;2022-10-31T08:54:15;14.80;;;5.50;;
73084;SDS011;62974;49.460;10.892;2022-10-31T08:56:43;11.98;;;6.13;;
73084;SDS011;62974;49.460;10.892;2022-10-31T08:59:10;12.10;;;6.45;;
73084;SDS011;62974;49.460;10.892;2022-10-31T09:01:38;15.35;;;6.82;;
73084;SDS011;62974;49.460;10.892;2022-10-31T09:04:05;13.93;;;6.82;;
73084;SDS011;62974;49.460;10.892;2022-10-31T09:06:33;13.68;;;6.93;;
73084;SDS011;62974;49.460;10.892;2022-10-31T09:09:04;11.25;;;5.85;;
73084;SDS011;62974;49.460;10.892;2022-10-31T09:11:32;14.48;;;6.72;;
73084;SDS011;62974;49.460;10.892;2022-10-31T09:13:59;17.98;;;8.98;;
73084;SDS011;62974;49.460;10.892;2022-10-31T09:16:27;19.33;;;8.20;;
73084;SDS011;62974;49.460;10.892;2022-10-31T09:18:54;17.35;;;8.30;;
73084;SDS011;62974;49.460;10.892;2022-10-31T09:21:22;17.58;;;9.27;;
73084;SDS011;62974;49.460;10.892;2022-10-31T09:23:49;16.95;;;8.02;;
73084;SDS011;62974;49.460;10.892;2022-10-31T09:26:20;18.25;;;8.65;;
73084;SDS011;62974;49.460;10.892;2022-10-31T09:28:48;12.88;;;6.63;;
73084;SDS011;62974;49.460;10.892;2022-10-31T09:31:15;14.20;;;7.78;;
73084;SDS011;62974;49.460;10.892;2022-10-31T09:33:42;24.73;;;11.45;;
73084;SDS011;62974;49.460;10.892;2022-10-31T09:36:10;18.58;;;8.82;;
73084;SDS011;62974;49.460;10.892;2022-10-31T09:38:37;21.13;;;9.77;;
73084;SDS011;62974;49.460;10.892;2022-10-31T09:41:07;19.17;;;9.15;;
73084;SDS011;62974;49.460;10.892;2022-10-31T09:43:43;21.48;;;9.90;;
73084;SDS011;62974;49.460;10.892;2022-10-31T09:46:19;16.33;;;8.75;;
73084;SDS011;62974;49.460;10.892;2022-10-31T09:48:57;16.83;;;8.63;;
73084;SDS011;62974;49.460;10.892;2022-10-31T09:51:40;14.63;;;7.50;;
73084;SDS011;62974;49.460;10.892;2022-10-31T09:54:18;23.23;;;11.52;;
73084;SDS011;62974;49.460;10.892;2022-10-31T09:56:49;14.35;;;7.70;;
73084;SDS011;62974;49.460;10.892;2022-10-31T09:59:19;16.33;;;8.90;;
73084;SDS011;62974;49.460;10.892;2022-10-31T10:01:53;20.85;;;10.30;;
73084;SDS011;62974;49.460;10.892;2022-10-31T10:04:29;18.98;;;9.65;;
73084;SDS011;62974;49.460;10.892;2022-10-31T10:07:02;25.23;;;11.23;;
73084;SDS011;62974;49.460;10.892;2022-10-31T10:09:41;31.65;;;15.70;;
73084;SDS011;62974;49.460;10.892;2022-10-31T10:12:12;29.70;;;14.90;;
73084;SDS011;62974;49.460;10.892;2022-10-31T10:14:51;30.13;;;15.35;;
73084;SDS011;62974;49.460;10.892;2022-10-31T10:17:31;27.23;;;13.88;;
73084;SDS011;62974;49.460;10.892;2022-10-31T10:20:18;35.15;;;16.45;;
73084;SDS011;62974;49.460;10.892;2022-10-31T10:22:56;27.73;;;14.55;;
73084;SDS011;62974;49.460;10.892;2022-10-31T10:25:41;19.55;;;11.73;;
73084;SDS011;62974;49.460;10.892;2022-10-31T10:28:15;17.75;;;10.10;;
73084;SDS011;62974;49.460;10.892;2022-10-31T10:30:50;18.52;;;10.90;;
73084;SDS011;62974;49.460;10.892;2022-10-31T10:33:22;30.33;;;14.63;;
73084;SDS011;62974;49.460;10.892;2022-10-31T10:35:55;15.90;;;9.10;;
73084;SDS011;62974;49.460;10.892;2022-10-31T10:38:27;17.27;;;9.45;;
73084;SDS011;62974;49.460;10.892;2022-10-31T10:40:59;15.63;;;7.68;;
73084;SDS011;62974;49.460;10.892;2022-10-31T10:43:31;16.70;;;9.43;;
73084;SDS011;62974;49.460;10.892;2022-10-31T10:46:05;18.35;;;9.20;;
73084;SDS011;62974;49.460;10.892;2022-10-31T10:49:03;16.88;;;9.68;;
73084;SDS011;62974;49.460;10.892;2022-10-31T10:51:40;18.40;;;10.27;;
73084;SDS011;62974;49.460;10.892;2022-10-31T10:54:39;16.75;;;8.52;;
73084;SDS011;62974;49.460;10.892;2022-10-31T11:00:15;18.80;;;9.82;;
73084;SDS011;62974;49.460;10.892;2022-10-31T11:02:47;18.73;;;11.43;;
73084;SDS011;62974;49.460;10.892;2022-10-31T11:05:18;18.38;;;10.05;;
73084;SDS011;62974;49.460;10.892;2022-10-31T11:07:50;23.23;;;11.15;;
73084;SDS011;62974;49.460;10.892;2022-10-31T11:10:18;22.48;;;10.35;;
73084;SDS011;62974;49.460;10.892;2022-10-31T11:12:56;21.98;;;11.02;;
73084;SDS011;62974;49.460;10.892;2022-10-31T11:15:27;20.27;;;11.98;;
73084;SDS011;62974;49.460;10.892;2022-10-31T11:17:59;19.35;;;9.25;;
73084;SDS011;62974;49.460;10.892;2022-10-31T11:20:28;23.75;;;11.93;;
73084;SDS011;62974;49.460;10.892;2022-10-31T11:23:02;18.05;;;11.68;;
73084;SDS011;62974;49.460;10.892;2022-10-31T11:28:00;19.42;;;10.90;;
73084;SDS011;62974;49.460;10.892;2022-10-31T11:30:29;20.55;;;10.82;;
73084;SDS011;62974;49.460;10.892;2022-10-31T11:32:59;20.52;;;12.15;;
73084;SDS011;62974;49.460;10.892;2022-10-31T11:35:27;19.85;;;11.82;;
73084;SDS011;62974;49.460;10.892;2022-10-31T11:37:56;19.73;;;12.32;;
73084;SDS011;62974;49.460;10.892;2022-10-31T11:40:28;18.17;;;11.32;;
73084;SDS011;62974;49.460;10.892;2022-10-31T11:42:56;16.98;;;9.48;;
73084;SDS011;62974;49.460;10.892;2022-10-31T11:45:28;17.42;;;10.95;;
73084;SDS011;62974;49.460;10.892;2022-10-31T11:48:00;17.60;;;10.45;;
73084;SDS011;62974;49.460;10.892;2022-10-31T11:50:31;15.35;;;9.52;;
73084;SDS011;62974;49.460;10.892;2022-10-31T11:53:03;16.95;;;9.98;;
73084;SDS011;62974;49.460;10.892;2022-10-31T11:55:32;16.42;;;8.40;;
73084;SDS011;62974;49.460;10.892;2022-10-31T11:58:03;16.27;;;9.18;;
73084;SDS011;62974;49.460;10.892;2022-10-31T12:00:33;15.40;;;8.68;;
73084;SDS011;62974;49.460;10.892;2022-10-31T12:03:06;20.73;;;10.60;;
73084;SDS011;62974;49.460;10.892;2022-10-31T12:05:40;17.48;;;9.27;;
73084;SDS011;62974;49.460;10.892;2022-10-31T12:08:11;19.13;;;10.18;;
73084;SDS011;62974;49.460;10.892;2022-10-31T12:10:43;19.58;;;9.02;;
73084;SDS011;62974;49.460;10.892;2022-10-31T12:13:30;19.90;;;10.98;;
73084;SDS011;62974;49.460;10.892;2022-10-31T12:16:02;16.67;;;9.43;;
73084;SDS011;62974;49.460;10.892;2022-10-31T12:18:46;16.38;;;10.15;;
73084;SDS011;62974;49.460;10.892;2022-10-31T12:21:27;17.58;;;9.48;;
73084;SDS011;62974;49.460;10.892;2022-10-31T12:24:08;14.35;;;8.73;;
73084;SDS011;62974;49.460;10.892;2022-10-31T12:26:45;14.65;;;9.30;;
73084;SDS011;62974;49.460;10.892;2022-10-31T12:32:17;16.42;;;9.23;;
73084;SDS011;62974;49.460;10.892;2022-10-31T12:35:00;18.92;;;9.75;;
73084;SDS011;62974;49.460;10.892;2022-10-31T12:37:42;15.88;;;8.82;;
73084;SDS011;62974;49.460;10.892;2022-10-31T12:40:30;16.17;;;9.20;;
73084;SDS011;62974;49.460;10.892;2022-10-31T12:43:11;17.02;;;8.90;;
73084;SDS011;62974;49.460;10.892;2022-10-31T12:45:52;15.25;;;8.02;;
73084;SDS011;62974;49.460;10.892;2022-10-31T12:48:28;17.45;;;9.45;;
73084;SDS011;62974;49.460;10.892;2022-10-31T12:51:13;17.00;;;9.40;;
73084;SDS011;62974;49.460;10.892;2022-10-31T12:53:52;18.92;;;10.65;;
73084;SDS011;62974;49.460;10.892;2022-10-31T12:56:34;20.52;;;10.43;;
73084;SDS011;62974;49.460;10.892;2022-10-31T12:59:10;16.50;;;9.38;;
73084;SDS011;62974;49.460;10.892;2022-10-31T13:01:45;21.10;;;11.95;;
73084;SDS011;62974;49.460;10.892;2022-10-31T13:04:19;18.27;;;10.90;;
73084;SDS011;62974;49.460;10.892;2022-10-31T13:06:53;16.08;;;9.65;;
73084;SDS011;62974;49.460;10.892;2022-10-31T13:09:25;16.67;;;9.07;;
73084;SDS011;62974;49.460;10.892;2022-10-31T13:11:58;16.35;;;9.13;;
73084;SDS011;62974;49.460;10.892;2022-10-31T13:14:32;18.02;;;10.00;;
73084;SDS011;62974;49.460;10.892;2022-10-31T13:17:04;13.73;;;8.05;;
73084;SDS011;62974;49.460;10.892;2022-10-31T13:19:34;14.85;;;8.73;;
73084;SDS011;62974;49.460;10.892;2022-10-31T13:22:07;14.82;;;8.85;;
73084;SDS011;62974;49.460;10.892;2022-10-31T13:24:40;14.55;;;9.13;;
73084;SDS011;62974;49.460;10.892;2022-10-31T13:27:13;16.08;;;9.55;;
73084;SDS011;62974;49.460;10.892;2022-10-31T13:29:44;16.45;;;9.60;;
73084;SDS011;62974;49.460;10.892;2022-10-31T13:32:21;17.50;;;9.38;;
73084;SDS011;62974;49.460;10.892;2022-10-31T13:34:50;14.50;;;7.93;;
73084;SDS011;62974;49.460;10.892;2022-10-31T13:37:25;18.10;;;8.50;;
73084;SDS011;62974;49.460;10.892;2022-10-31T13:40:02;15.38;;;7.38;;
73084;SDS011;62974;49.460;10.892;2022-10-31T13:42:39;11.13;;;6.45;;
73084;SDS011;62974;49.460;10.892;2022-10-31T13:45:17;15.27;;;8.10;;
73084;SDS011;62974;49.460;10.892;2022-10-31T13:47:54;16.40;;;8.15;;
73084;SDS011;62974;49.460;10.892;2022-10-31T13:50:25;12.00;;;7.55;;
73084;SDS011;62974;49.460;10.892;2022-10-31T13:53:12;13.57;;;7.10;;
73084;SDS011;62974;49.460;10.892;2022-10-31T13:55:41;16.25;;;7.35;;
73084;SDS011;62974;49.460;10.892;2022-10-31T13:58:20;14.70;;;7.30;;
73084;SDS011;62974;49.460;10.892;2022-10-31T14:01:03;12.48;;;7.20;;
73084;SDS011;62974;49.460;10.892;2022-10-31T14:03:41;13.30;;;6.70;;
73084;SDS011;62974;49.460;10.892;2022-10-31T14:06:34;14.50;;;7.13;;
73084;SDS011;62974;49.460;10.892;2022-10-31T14:09:05;12.52;;;6.53;;
73084;SDS011;62974;49.460;10.892;2022-10-31T14:11:45;12.48;;;6.85;;
73084;SDS011;62974;49.460;10.892;2022-10-31T14:14:14;14.20;;;6.38;;
73084;SDS011;62974;49.460;10.892;2022-10-31T14:16:44;13.27;;;7.13;;
73084;SDS011;62974;49.460;10.892;2022-10-31T14:19:19;14.18;;;6.88;;
73084;SDS011;62974;49.460;10.892;2022-10-31T14:21:47;15.02;;;7.35;;
73084;SDS011;62974;49.460;10.892;2022-10-31T14:24:31;13.95;;;6.82;;
73084;SDS011;62974;49.460;10.892;2022-10-31T14:27:29;13.65;;;7.85;;
73084;SDS011;62974;49.460;10.892;2022-10-31T14:30:15;13.15;;;7.40;;
73084;SDS011;62974;49.460;10.892;2022-10-31T14:32:47;17.05;;;8.05;;
73084;SDS011;62974;49.460;10.892;2022-10-31T14:35:18;12.32;;;7.63;;
73084;SDS011;62974;49.460;10.892;2022-10-31T14:37:53;15.43;;;7.82;;
73084;SDS011;62974;49.460;10.892;2022-10-31T14:40:35;16.02;;;8.02;;
73084;SDS011;62974;49.460;10.892;2022-10-31T14:43:18;15.48;;;8.38;;
73084;SDS011;62974;49.460;10.892;2022-10-31T14:46:04;12.07;;;8.10;;
73084;SDS011;62974;49.460;10.892;2022-10-31T14:48:47;19.00;;;7.65;;
73084;SDS011;62974;49.460;10.892;2022-10-31T14:51:30;19.10;;;8.52;;
73084;SDS011;62974;49.460;10.892;2022-10-31T14:54:03;16.73;;;7.55;;
73084;SDS011;62974;49.460;10.892;2022-10-31T14:56:33;16.88;;;7.75;;
73084;SDS011;62974;49.460;10.892;2022-10-31T14:59:04;12.70;;;7.03;;
73084;SDS011;62974;49.460;10.892;2022-10-31T15:01:36;13.95;;;7.00;;
73084;SDS011;62974;49.460;10.892;2022-10-31T15:04:07;17.02;;;7.32;;
73084;SDS011;62974;49.460;10.892;2022-10-31T15:06:51;16.70;;;11.45;;
73084;SDS011;62974;49.460;10.892;2022-10-31T15:09:22;13.48;;;8.45;;
73084;SDS011;62974;49.460;10.892;2022-10-31T15:11:51;14.32;;;7.68;;
73084;SDS011;62974;49.460;10.892;2022-10-31T15:14:24;14.13;;;8.25;;
73084;SDS011;62974;49.460;10.892;2022-10-31T15:16:54;11.63;;;6.78;;